createdAt,value
2018-05-24T00:02:09.832Z,13.40
2018-05-24T00:04:37.505Z,13.40
2018-05-24T00:07:05.201Z,13.40
2018-05-24T00:09:32.889Z,13.40
2018-05-24T00:12:01.340Z,13.50
2018-05-24T00:14:29.022Z,13.50
2018-05-24T00:16:56.697Z,13.50
2018-05-24T00:19:25.141Z,13.40
2018-05-24T00:21:52.808Z,13.30
2018-05-24T00:24:20.484Z,13.20
2018-05-24T00:26:48.576Z,13.20
2018-05-24T00:29:17.025Z,13.30
2018-05-24T00:31:44.736Z,13.20
2018-05-24T00:34:12.450Z,13.30
2018-05-24T00:36:40.129Z,13.30
2018-05-24T00:39:07.825Z,13.30
2018-05-24T00:41:35.561Z,13.20
2018-05-24T00:44:04.048Z,13.20
2018-05-24T00:46:32.522Z,13.20
2018-05-24T00:49:00.205Z,13.20
2018-05-24T00:51:28.670Z,13.30
2018-05-24T00:53:57.128Z,13.30
2018-05-24T00:56:24.810Z,13.20
2018-05-24T00:58:53.636Z,13.30
2018-05-24T01:01:21.360Z,13.30
2018-05-24T01:03:49.041Z,13.10
2018-05-24T01:06:17.704Z,12.90
2018-05-24T01:08:45.388Z,12.90
2018-05-24T01:11:13.853Z,12.80
2018-05-24T01:13:41.544Z,12.80
2018-05-24T01:16:09.255Z,12.70
2018-05-24T01:18:36.941Z,12.60
2018-05-24T01:21:04.681Z,12.60
2018-05-24T01:23:32.369Z,12.70
2018-05-24T01:26:00.819Z,12.90
2018-05-24T01:28:28.512Z,12.90
2018-05-24T01:30:57.006Z,13.10
2018-05-24T01:33:24.761Z,13.00
2018-05-24T01:35:53.237Z,13.10
2018-05-24T01:38:20.952Z,13.10
2018-05-24T01:40:48.640Z,13.10
2018-05-24T01:43:16.324Z,13.00
2018-05-24T01:45:44.001Z,13.00
2018-05-24T01:48:12.468Z,13.00
2018-05-24T01:50:40.233Z,13.00
2018-05-24T01:53:07.924Z,13.10
2018-05-24T01:55:35.638Z,13.00
2018-05-24T01:58:03.327Z,13.10
2018-05-24T02:00:31.782Z,12.80
2018-05-24T02:02:59.813Z,12.80
2018-05-24T02:05:27.502Z,12.90
2018-05-24T02:07:55.172Z,12.90
2018-05-24T02:10:26.344Z,12.80
2018-05-24T02:12:54.037Z,12.70
2018-05-24T02:15:21.734Z,12.60
2018-05-24T02:17:49.429Z,12.60
2018-05-24T02:20:17.108Z,12.50
2018-05-24T02:22:45.572Z,12.50
2018-05-24T02:25:13.254Z,12.50
2018-05-24T02:27:41.688Z,12.40
2018-05-24T02:30:10.402Z,12.40
2018-05-24T02:32:38.082Z,12.40
2018-05-24T02:35:06.129Z,12.50
2018-05-24T02:37:33.829Z,12.40
2018-05-24T02:40:02.585Z,12.30
2018-05-24T02:42:30.311Z,12.40
2018-05-24T02:44:58.065Z,12.30
2018-05-24T02:47:25.760Z,12.30
2018-05-24T02:49:53.444Z,12.30
2018-05-24T02:52:21.895Z,12.20
2018-05-24T02:54:49.580Z,12.20
2018-05-24T02:57:17.265Z,12.10
2018-05-24T02:59:45.717Z,12.10
2018-05-24T03:02:13.389Z,12.10
2018-05-24T03:04:41.846Z,11.90
2018-05-24T03:07:09.560Z,11.90
2018-05-24T03:09:37.300Z,12.10
2018-05-24T03:12:05.783Z,12.20
2018-05-24T03:14:34.266Z,12.20
2018-05-24T03:17:02.716Z,12.30
2018-05-24T03:19:30.397Z,12.30
2018-05-24T03:21:58.080Z,12.30
2018-05-24T03:24:26.592Z,12.30
2018-05-24T03:26:54.280Z,12.30
2018-05-24T03:29:21.971Z,12.30
2018-05-24T03:31:49.744Z,12.20
2018-05-24T03:34:18.192Z,12.20
2018-05-24T03:36:45.884Z,12.20
2018-05-24T03:39:14.709Z,12.20
2018-05-24T03:41:42.424Z,12.20
2018-05-24T03:44:10.107Z,12.10
2018-05-24T03:46:38.617Z,12.00
2018-05-24T03:49:06.305Z,12.00
2018-05-24T03:51:34.000Z,12.00
2018-05-24T03:54:01.678Z,12.10
2018-05-24T03:56:30.122Z,12.10
2018-05-24T04:02:21.075Z,12.00
2018-05-24T04:04:52.522Z,12.00
2018-05-24T04:07:20.189Z,12.00
2018-05-24T04:09:48.664Z,11.90
2018-05-24T04:12:16.349Z,11.90
2018-05-24T04:14:44.789Z,11.80
2018-05-24T04:17:12.520Z,11.70
2018-05-24T04:19:40.237Z,11.80
2018-05-24T04:22:08.708Z,11.70
2018-05-24T04:24:36.423Z,11.70
2018-05-24T04:27:04.194Z,11.70
2018-05-24T04:29:31.948Z,11.70
2018-05-24T04:31:59.721Z,11.60
2018-05-24T04:34:27.485Z,11.70
2018-05-24T04:36:55.176Z,11.80
2018-05-24T04:39:22.904Z,11.90
2018-05-24T04:41:50.705Z,11.90
2018-05-24T04:44:18.395Z,12.00
2018-05-24T04:46:46.949Z,12.20
2018-05-24T04:49:14.689Z,12.20
2018-05-24T04:51:42.407Z,12.30
2018-05-24T04:54:10.129Z,12.30
2018-05-24T04:56:37.877Z,12.40
2018-05-24T04:59:05.589Z,12.50
2018-05-24T05:01:33.337Z,12.60
2018-05-24T05:04:01.849Z,12.60
2018-05-24T05:06:30.292Z,12.60
2018-05-24T05:08:58.075Z,12.60
2018-05-24T05:11:27.837Z,12.80
2018-05-24T05:13:55.938Z,12.90
2018-05-24T05:16:23.633Z,13.00
2018-05-24T05:18:52.117Z,13.40
2018-05-24T05:21:20.701Z,13.70
2018-05-24T05:23:49.176Z,13.90
2018-05-24T05:26:16.952Z,13.90
2018-05-24T05:28:45.414Z,14.00
2018-05-24T05:31:13.102Z,14.00
2018-05-24T05:33:40.830Z,14.10
2018-05-24T05:36:08.635Z,14.30
2018-05-24T05:38:36.351Z,14.40
2018-05-24T05:41:04.174Z,14.60
2018-05-24T05:43:31.909Z,14.70
2018-05-24T05:46:00.379Z,14.90
2018-05-24T05:48:28.090Z,14.80
2018-05-24T05:50:55.851Z,15.00
2018-05-24T05:53:23.590Z,15.10
2018-05-24T05:55:52.130Z,15.20
2018-05-24T05:58:19.837Z,15.20
2018-05-24T06:00:48.402Z,15.50
2018-05-24T06:03:16.077Z,15.50
2018-05-24T06:05:44.590Z,15.70
2018-05-24T06:08:12.343Z,15.70
2018-05-24T06:10:40.196Z,15.60
2018-05-24T06:13:08.699Z,15.80
2018-05-24T06:15:36.441Z,15.80
2018-05-24T06:18:05.289Z,16.30
2018-05-24T06:20:34.013Z,16.20
2018-05-24T06:23:02.501Z,16.50
2018-05-24T06:25:31.028Z,16.50
2018-05-24T06:27:58.807Z,16.50
2018-05-24T06:30:26.572Z,16.60
2018-05-24T06:32:54.352Z,16.70
2018-05-24T06:35:22.096Z,16.90
2018-05-24T06:37:49.811Z,16.90
2018-05-24T06:40:17.625Z,17.00
2018-05-24T06:42:45.359Z,17.10
2018-05-24T06:45:13.105Z,17.10
2018-05-24T06:47:40.864Z,17.10
2018-05-24T06:50:09.943Z,17.30
2018-05-24T06:52:37.733Z,17.30
2018-05-24T06:55:05.478Z,17.50
2018-05-24T06:57:34.001Z,17.50
2018-05-24T07:00:02.858Z,17.40
2018-05-24T07:02:30.644Z,17.70
2018-05-24T07:04:58.349Z,17.70
2018-05-24T07:07:26.057Z,17.70
2018-05-24T07:09:53.839Z,17.60
2018-05-24T07:12:21.580Z,17.80
2018-05-24T07:14:50.051Z,18.10
2018-05-24T07:17:18.523Z,18.00
2018-05-24T07:19:47.031Z,17.70
2018-05-24T07:22:15.119Z,17.70
2018-05-24T07:24:42.898Z,17.80
2018-05-24T07:27:10.618Z,17.90
2018-05-24T07:29:39.165Z,18.20
2018-05-24T07:32:06.894Z,18.10
2018-05-24T07:34:34.632Z,18.40
2018-05-24T07:37:02.351Z,18.60
2018-05-24T07:39:30.084Z,18.70
2018-05-24T07:41:57.820Z,18.70
2018-05-24T07:44:26.276Z,18.70
2018-05-24T07:46:53.993Z,18.60
2018-05-24T07:49:21.711Z,18.70
2018-05-24T07:51:49.418Z,18.90
2018-05-24T07:54:17.157Z,19.20
2018-05-24T07:56:44.890Z,19.40
2018-05-24T07:59:12.640Z,19.10
2018-05-24T08:01:40.494Z,19.10
2018-05-24T08:04:08.941Z,19.70
2018-05-24T08:06:36.677Z,19.70
2018-05-24T08:09:04.449Z,20.00
2018-05-24T08:11:32.990Z,20.00
2018-05-24T08:14:00.727Z,19.90
2018-05-24T08:16:28.427Z,19.80
2018-05-24T08:18:56.192Z,19.80
2018-05-24T08:21:23.920Z,19.90
2018-05-24T08:23:51.620Z,20.10
2018-05-24T08:26:19.325Z,20.30
2018-05-24T08:28:47.808Z,20.20
2018-05-24T08:31:16.308Z,20.30
2018-05-24T08:33:44.056Z,20.30
2018-05-24T08:36:11.808Z,20.60
2018-05-24T08:38:39.694Z,20.50
2018-05-24T08:41:07.468Z,20.50
2018-05-24T08:43:35.200Z,20.40
2018-05-24T08:46:03.700Z,20.80
2018-05-24T08:48:31.467Z,20.80
2018-05-24T08:50:59.237Z,21.00
2018-05-24T08:53:27.011Z,21.20
2018-05-24T08:55:54.772Z,21.40
2018-05-24T08:58:22.910Z,21.20
2018-05-24T09:00:50.798Z,21.30
2018-05-24T09:03:18.546Z,21.50
2018-05-24T09:05:47.217Z,21.50
2018-05-24T09:08:15.000Z,21.50
2018-05-24T09:10:43.841Z,21.90
2018-05-24T09:13:11.549Z,22.20
2018-05-24T09:15:40.093Z,22.30
2018-05-24T09:18:07.811Z,22.30
2018-05-24T09:20:35.590Z,22.50
2018-05-24T09:23:03.318Z,22.50
2018-05-24T09:25:31.857Z,21.60
2018-05-24T09:27:59.576Z,21.60
2018-05-24T09:30:27.385Z,21.80
2018-05-24T09:32:55.168Z,21.90
2018-05-24T09:35:22.897Z,22.00
2018-05-24T09:37:50.672Z,21.70
2018-05-24T09:40:18.377Z,22.20
2018-05-24T09:42:46.117Z,22.60
2018-05-24T09:45:13.876Z,22.70
2018-05-24T09:47:41.612Z,22.50
2018-05-24T09:50:09.384Z,22.70
2018-05-24T09:52:37.074Z,23.10
2018-05-24T09:55:04.800Z,23.40
2018-05-24T09:57:32.527Z,23.30
2018-05-24T10:00:00.385Z,23.60
2018-05-24T10:02:28.518Z,23.70
2018-05-24T10:04:56.208Z,23.00
2018-05-24T10:07:23.888Z,22.90
2018-05-24T10:09:52.751Z,23.40
2018-05-24T10:12:20.473Z,24.00
2018-05-24T10:14:48.274Z,24.10
2018-05-24T10:17:15.984Z,24.30
2018-05-24T10:19:45.552Z,24.60
2018-05-24T10:22:13.288Z,24.50
2018-05-24T10:24:41.080Z,24.60
2018-05-24T10:27:08.784Z,24.20
2018-05-24T10:29:37.329Z,24.50
2018-05-24T10:32:05.128Z,24.50
2018-05-24T10:34:33.665Z,25.30
2018-05-24T10:37:01.378Z,25.30
2018-05-24T10:39:29.948Z,25.10
2018-05-24T10:41:57.695Z,25.10
2018-05-24T10:44:25.412Z,25.60
2018-05-24T10:46:53.124Z,25.80
2018-05-24T10:49:20.844Z,26.10
2018-05-24T10:51:48.588Z,26.00
2018-05-24T10:54:16.310Z,26.30
2018-05-24T10:56:44.091Z,26.30
2018-05-24T10:59:11.838Z,26.40
2018-05-24T11:01:39.560Z,26.20
2018-05-24T11:04:07.265Z,26.30
2018-05-24T11:06:35.333Z,26.70
2018-05-24T11:09:03.220Z,26.70
2018-05-24T11:11:31.066Z,26.90
2018-05-24T11:13:59.564Z,27.30
2018-05-24T11:16:27.332Z,27.20
2018-05-24T11:18:55.041Z,27.30
2018-05-24T11:21:22.792Z,27.20
2018-05-24T11:23:50.537Z,27.40
2018-05-24T11:26:19.109Z,27.90
2018-05-24T11:28:46.842Z,27.90
2018-05-24T11:31:14.663Z,27.80
2018-05-24T11:33:42.405Z,27.90
2018-05-24T11:36:10.233Z,27.90
2018-05-24T11:38:38.181Z,27.80
2018-05-24T11:41:05.947Z,27.80
2018-05-24T11:43:33.754Z,27.70
2018-05-24T11:46:01.628Z,27.80
2018-05-24T11:48:29.337Z,27.90
2018-05-24T11:50:57.123Z,27.70
2018-05-24T11:53:24.891Z,27.80
2018-05-24T11:55:52.616Z,27.70
2018-05-24T11:58:20.404Z,27.90
2018-05-24T12:00:49.212Z,28.20
2018-05-24T12:03:16.974Z,28.40
2018-05-24T12:05:44.664Z,28.60
2018-05-24T12:08:12.371Z,28.10
2018-05-24T12:10:40.241Z,28.60
2018-05-24T12:13:07.974Z,28.90
2018-05-24T12:15:36.464Z,29.40
2018-05-24T12:18:04.281Z,29.40
2018-05-24T12:20:32.022Z,29.70
2018-05-24T12:22:59.738Z,29.70
2018-05-24T12:25:27.465Z,29.60
2018-05-24T12:27:55.226Z,29.70
2018-05-24T12:30:23.012Z,29.50
2018-05-24T12:32:50.700Z,29.20
2018-05-24T12:35:19.266Z,29.10
2018-05-24T12:37:47.036Z,29.10
2018-05-24T12:40:14.897Z,29.30
2018-05-24T12:42:42.609Z,29.50
2018-05-24T12:45:10.328Z,29.50
2018-05-24T12:47:38.067Z,29.70
2018-05-24T12:50:05.877Z,29.70
2018-05-24T12:52:34.336Z,28.90
2018-05-24T12:55:02.064Z,28.80
2018-05-24T12:57:29.797Z,28.80
2018-05-24T12:59:57.533Z,28.60
2018-05-24T13:02:25.275Z,28.40
2018-05-24T13:04:53.008Z,28.20
2018-05-24T13:07:20.717Z,28.10
2018-05-24T13:09:48.499Z,28.20
2018-05-24T13:12:16.220Z,28.20
2018-05-24T13:14:44.472Z,28.40
2018-05-24T13:17:12.213Z,28.50
2018-05-24T13:19:40.709Z,29.70
2018-05-24T13:22:08.521Z,29.60
2018-05-24T13:24:36.250Z,29.80
2018-05-24T13:27:04.039Z,29.60
2018-05-24T13:29:31.741Z,29.50
2018-05-24T13:32:00.213Z,29.40
2018-05-24T13:34:28.018Z,29.30
2018-05-24T13:36:55.677Z,29.50
2018-05-24T13:39:23.446Z,29.20
2018-05-24T13:41:51.164Z,29.30
2018-05-24T13:44:18.896Z,29.80
2018-05-24T13:46:46.661Z,30.20
2018-05-24T13:49:14.382Z,30.10
2018-05-24T13:51:42.149Z,30.60
2018-05-24T13:54:09.902Z,30.90
2018-05-24T13:56:38.380Z,30.90
2018-05-24T13:59:06.108Z,30.90
2018-05-24T14:01:33.869Z,31.30
2018-05-24T14:04:01.568Z,30.80
2018-05-24T14:06:30.080Z,32.20
2018-05-24T14:08:57.803Z,32.20
2018-05-24T14:11:25.617Z,32.70
2018-05-24T14:13:53.324Z,33.00
2018-05-24T14:16:21.067Z,33.30
2018-05-24T14:18:49.219Z,33.10
2018-05-24T14:21:16.933Z,33.50
2018-05-24T14:23:44.658Z,34.10
2018-05-24T14:26:12.478Z,34.00
2018-05-24T14:28:40.957Z,34.20
2018-05-24T14:31:09.425Z,34.00
2018-05-24T14:33:37.156Z,34.00
2018-05-24T14:36:04.855Z,33.00
2018-05-24T14:38:33.356Z,32.70
2018-05-24T14:41:01.064Z,32.70
2018-05-24T14:43:28.764Z,30.90
2018-05-24T14:45:57.251Z,29.90
2018-05-24T14:48:25.752Z,30.10
2018-05-24T14:50:53.879Z,30.10
2018-05-24T14:53:21.563Z,29.70
2018-05-24T14:55:50.045Z,29.00
2018-05-24T14:58:18.557Z,28.60
2018-05-24T15:00:46.357Z,28.60
2018-05-24T15:03:14.115Z,28.10
2018-05-24T15:05:41.861Z,27.90
2018-05-24T15:08:09.573Z,27.90
2018-05-24T15:10:37.309Z,27.90
2018-05-24T15:13:05.193Z,27.80
2018-05-24T15:15:33.002Z,27.80
2018-05-24T15:18:00.775Z,28.00
2018-05-24T15:20:28.543Z,27.90
2018-05-24T15:22:56.516Z,27.80
2018-05-24T15:25:24.245Z,27.70
2018-05-24T15:27:52.832Z,28.40
2018-05-24T15:30:21.448Z,30.30
2018-05-24T15:32:49.184Z,30.20
2018-05-24T15:35:17.404Z,31.50
2018-05-24T15:37:45.991Z,32.10
2018-05-24T15:40:14.923Z,32.90
2018-05-24T15:42:45.076Z,32.00
2018-05-24T15:45:12.864Z,31.90
2018-05-24T15:47:40.590Z,32.10
2018-05-24T15:50:08.379Z,33.60
2018-05-24T15:52:36.065Z,34.00
2018-05-24T15:55:03.881Z,33.60
2018-05-24T15:57:31.911Z,33.20
2018-05-24T15:59:59.702Z,31.60
2018-05-24T16:02:28.322Z,29.60
2018-05-24T16:04:56.059Z,29.60
2018-05-24T16:07:24.653Z,28.40
2018-05-24T16:09:52.501Z,28.40
2018-05-24T16:12:21.070Z,27.70
2018-05-24T16:14:48.845Z,27.60
2018-05-24T16:17:17.369Z,27.60
2018-05-24T16:19:45.206Z,27.60
2018-05-24T16:22:12.976Z,27.20
2018-05-24T16:24:40.755Z,27.20
2018-05-24T16:27:08.762Z,27.10
2018-05-24T16:29:36.561Z,27.00
2018-05-24T16:32:05.140Z,26.60
2018-05-24T16:34:33.666Z,26.20
2018-05-24T16:37:01.475Z,26.20
2018-05-24T16:39:29.277Z,26.00
2018-05-24T16:41:57.060Z,25.70
2018-05-24T16:44:24.811Z,25.60
2018-05-24T16:46:52.574Z,25.30
2018-05-24T16:49:20.390Z,25.10
2018-05-24T16:51:48.331Z,25.00
2018-05-24T16:54:16.186Z,24.80
2018-05-24T16:56:43.903Z,24.70
2018-05-24T16:59:12.027Z,24.50
2018-05-24T17:01:39.775Z,24.30
2018-05-24T17:04:07.571Z,24.10
2018-05-24T17:06:35.359Z,24.10
2018-05-24T17:09:03.287Z,23.90
2018-05-24T17:11:31.132Z,23.80
2018-05-24T17:13:58.918Z,23.70
2018-05-24T17:16:26.681Z,23.50
2018-05-24T17:18:54.440Z,23.50
2018-05-24T17:21:23.305Z,23.40
2018-05-24T17:23:51.810Z,23.30
2018-05-24T17:26:19.603Z,23.30
2018-05-24T17:28:47.368Z,23.10
2018-05-24T17:31:15.572Z,22.90
2018-05-24T17:33:43.335Z,22.70
2018-05-24T17:36:11.136Z,22.70
2018-05-24T17:38:38.888Z,22.60
2018-05-24T17:41:06.741Z,22.40
2018-05-24T17:43:34.601Z,22.30
2018-05-24T17:46:02.329Z,22.20
2018-05-24T17:48:30.076Z,22.10
2018-05-24T17:50:57.925Z,22.10
2018-05-24T17:53:25.768Z,22.10
2018-05-24T17:55:53.611Z,22.00
2018-05-24T17:58:21.359Z,22.00
2018-05-24T18:00:49.152Z,21.80
2018-05-24T18:03:16.973Z,21.60
2018-05-24T18:05:44.736Z,21.60
2018-05-24T18:08:12.580Z,21.60
2018-05-24T18:10:40.416Z,21.50
2018-05-24T18:13:08.245Z,21.50
2018-05-24T18:15:36.012Z,21.40
2018-05-24T18:18:03.827Z,21.30
2018-05-24T18:20:32.412Z,21.00
2018-05-24T18:23:02.422Z,20.90
2018-05-24T18:25:30.947Z,20.90
2018-05-24T18:27:58.732Z,20.80
2018-05-24T18:30:26.500Z,20.80
2018-05-24T18:32:54.254Z,20.70
2018-05-24T18:35:22.080Z,20.60
2018-05-24T18:37:49.901Z,20.50
2018-05-24T18:40:18.813Z,20.40
2018-05-24T18:42:46.580Z,20.40
2018-05-24T18:45:14.352Z,20.30
2018-05-24T18:47:42.927Z,20.20
2018-05-24T18:50:10.793Z,20.20
2018-05-24T18:52:38.568Z,20.20
2018-05-24T18:55:07.298Z,20.20
2018-05-24T18:57:35.129Z,20.20
2018-05-24T19:00:03.013Z,20.10
2018-05-24T19:02:30.837Z,20.00
2018-05-24T19:04:58.678Z,20.00
2018-05-24T19:07:26.463Z,19.90
2018-05-24T19:09:54.319Z,19.90
2018-05-24T19:12:22.469Z,19.80
2018-05-24T19:14:50.277Z,19.70
2018-05-24T19:17:18.042Z,19.60
2018-05-24T19:19:45.877Z,19.50
2018-05-24T19:22:13.587Z,19.50
2018-05-24T19:24:42.065Z,19.40
2018-05-24T19:27:10.561Z,19.40
2018-05-24T19:29:38.649Z,19.30
2018-05-24T19:32:06.438Z,19.40
2018-05-24T19:34:34.169Z,19.30
2018-05-24T19:37:01.946Z,19.20
2018-05-24T19:39:30.282Z,19.20
2018-05-24T19:41:57.962Z,19.10
2018-05-24T19:44:26.424Z,19.20
2018-05-24T19:46:54.981Z,19.20
2018-05-24T19:49:22.664Z,19.20
2018-05-24T19:51:50.357Z,19.20
2018-05-24T19:54:18.064Z,19.10
2018-05-24T19:56:45.735Z,18.90
2018-05-24T19:59:13.429Z,18.90
2018-05-24T20:01:41.902Z,18.80
2018-05-24T20:04:10.356Z,18.70
2018-05-24T20:06:38.045Z,18.70
2018-05-24T20:09:05.785Z,18.70
2018-05-24T20:11:33.818Z,18.70
2018-05-24T20:14:01.516Z,18.50
2018-05-24T20:16:29.205Z,18.50
2018-05-24T20:18:56.881Z,18.50
2018-05-24T20:21:25.341Z,18.50
2018-05-24T20:23:53.024Z,18.40
2018-05-24T20:26:21.463Z,18.30
2018-05-24T20:28:49.148Z,18.30
2018-05-24T20:31:16.825Z,18.10
2018-05-24T20:33:45.268Z,18.10
2018-05-24T20:36:12.955Z,18.10
2018-05-24T20:38:40.661Z,18.30
2018-05-24T20:41:09.405Z,18.40
2018-05-24T20:43:37.869Z,18.50
2018-05-24T20:46:05.557Z,18.50
2018-05-24T20:48:34.098Z,18.40
2018-05-24T20:51:01.772Z,18.40
2018-05-24T20:53:29.453Z,18.30
2018-05-24T20:55:57.144Z,18.30
2018-05-24T20:58:24.831Z,18.30
2018-05-24T21:00:52.541Z,18.20
2018-05-24T21:03:20.220Z,18.20
2018-05-24T21:05:48.665Z,18.30
2018-05-24T21:08:16.348Z,18.30
2018-05-24T21:10:44.016Z,18.30
2018-05-24T21:13:12.464Z,18.30
2018-05-24T21:15:40.153Z,18.30
2018-05-24T21:18:07.861Z,18.20
2018-05-24T21:20:35.681Z,18.30
2018-05-24T21:23:03.357Z,18.30
2018-05-24T21:25:31.825Z,18.10
2018-05-24T21:27:59.505Z,18.10
2018-05-24T21:30:27.951Z,17.90
2018-05-24T21:32:56.421Z,17.90
2018-05-24T21:35:24.092Z,17.90
2018-05-24T21:37:51.834Z,18.00
2018-05-24T21:40:19.522Z,18.00
2018-05-24T21:42:47.200Z,17.90
2018-05-24T21:45:14.877Z,17.90
2018-05-24T21:47:43.692Z,17.90
2018-05-24T21:50:11.421Z,17.90
2018-05-24T21:52:39.966Z,17.70
2018-05-24T21:55:07.637Z,17.70
2018-05-24T21:57:35.317Z,17.50
2018-05-24T22:00:03.197Z,17.30
2018-05-24T22:02:31.644Z,16.80
2018-05-24T22:04:59.333Z,16.80
2018-05-24T22:07:27.030Z,16.70
2018-05-24T22:09:54.766Z,16.50
2018-05-24T22:12:23.224Z,16.30
2018-05-24T22:14:50.976Z,16.30
2018-05-24T22:17:18.645Z,16.40
2018-05-24T22:19:46.792Z,16.30
2018-05-24T22:22:14.480Z,16.30
2018-05-24T22:24:42.210Z,16.50
2018-05-24T22:27:09.900Z,16.60
2018-05-24T22:29:37.587Z,16.60
2018-05-24T22:32:05.305Z,16.50
2018-05-24T22:34:33.008Z,16.40
2018-05-24T22:37:00.684Z,16.40
2018-05-24T22:39:29.137Z,16.60
2018-05-24T22:41:56.822Z,16.50
2018-05-24T22:44:24.500Z,16.50
2018-05-24T22:46:52.958Z,16.10
2018-05-24T22:49:20.640Z,16.10
2018-05-24T22:51:49.383Z,16.00
2018-05-24T22:54:17.067Z,16.00
2018-05-24T22:56:44.862Z,16.10
2018-05-24T22:59:12.525Z,16.10
2018-05-24T23:01:41.090Z,16.00
2018-05-24T23:04:08.818Z,16.00
2018-05-24T23:06:36.513Z,16.00
2018-05-24T23:09:04.292Z,16.00
2018-05-24T23:11:32.757Z,15.70
2018-05-24T23:14:00.437Z,15.70
2018-05-24T23:16:28.153Z,15.70
2018-05-24T23:18:55.853Z,15.60
2018-05-24T23:21:23.552Z,15.60
2018-05-24T23:23:51.269Z,15.50
2018-05-24T23:26:18.949Z,15.40
2018-05-24T23:28:47.423Z,15.40
2018-05-24T23:31:15.905Z,15.40
2018-05-24T23:33:44.357Z,15.40
2018-05-24T23:36:12.045Z,15.40
2018-05-24T23:38:39.739Z,15.40
2018-05-24T23:41:07.468Z,15.40
2018-05-24T23:43:35.145Z,15.30
2018-05-24T23:46:03.614Z,15.10
2018-05-24T23:48:31.294Z,15.10
2018-05-24T23:50:59.751Z,15.10
2018-05-24T23:53:27.448Z,15.00
2018-05-24T23:55:55.565Z,15.10
2018-05-24T23:58:23.235Z,15.10
